Terminal Aerodrome Forecast
Issued by NWS

Home | Current Version | Previous Version | Graphics & Text | Print | Product List | Glossary Off
Versions: 1 2 3 4 5 6 7 8 9 10 11 12 13 14 15 16 17 18 19 20 21 22 23 24 25 26 27

000
FTUS43 KDDC 192320
TAFHYS
TAF
KHYS 192320Z 2000/2024 14008KT P6SM OVC008
     FM200600 VRB04KT 1SM BR OVC007
      TEMPO 2006/2010 1/2SM FG
     FM201000 VRB03KT 1SM BR OVC003
     FM201500 VRB04KT 3SM BR OVC010=

USA.gov is the U.S. government's official web portal to all federal, state and local government web resources and services.